createdAt,value
2023-11-12T00:01:41.494Z,19.63
2023-11-12T00:04:10.346Z,21.52
2023-11-12T00:06:41.827Z,21.25
2023-11-12T00:09:10.617Z,20.77
2023-11-12T00:11:39.406Z,21.80
2023-11-12T00:14:07.570Z,23.45
2023-11-12T00:16:35.579Z,20.60
2023-11-12T00:19:05.111Z,21.10
2023-11-12T00:24:02.911Z,21.02
2023-11-12T00:26:30.902Z,22.80
2023-11-12T00:28:58.761Z,23.95
2023-11-12T00:31:26.625Z,25.83
2023-11-12T00:33:55.428Z,21.75
2023-11-12T00:36:24.022Z,21.67
2023-11-12T00:38:51.866Z,23.27
2023-11-12T00:41:21.647Z,26.65
2023-11-12T00:43:50.297Z,27.33
2023-11-12T00:46:18.288Z,24.75
2023-11-12T00:48:46.199Z,25.45
2023-11-12T00:51:14.007Z,28.67
2023-11-12T00:53:42.916Z,26.08
2023-11-12T00:56:10.784Z,26.17
2023-11-12T00:58:39.958Z,27.25
2023-11-12T01:01:08.054Z,25.45
2023-11-12T01:03:35.900Z,23.55
2023-11-12T01:06:04.506Z,26.52
2023-11-12T01:08:32.504Z,25.97
2023-11-12T01:11:00.874Z,28.17
2023-11-12T01:13:28.852Z,27.95
2023-11-12T01:15:58.251Z,30.48
2023-11-12T01:18:26.790Z,34.10
2023-11-12T01:20:54.956Z,25.00
2023-11-12T01:23:23.038Z,27.90
2023-11-12T01:25:50.904Z,30.45
2023-11-12T01:28:18.732Z,29.08
2023-11-12T01:30:46.704Z,27.98
2023-11-12T01:33:15.933Z,29.92
2023-11-12T01:35:43.862Z,29.92
2023-11-12T01:38:11.921Z,26.45
2023-11-12T01:40:41.115Z,31.45
2023-11-12T01:43:09.153Z,30.75
2023-11-12T01:45:37.198Z,30.52
2023-11-12T01:48:09.174Z,33.28
2023-11-12T01:50:39.276Z,30.17
2023-11-12T01:53:07.298Z,31.17
2023-11-12T01:55:35.599Z,34.20
2023-11-12T01:58:05.397Z,35.70
2023-11-12T02:00:34.292Z,31.48
2023-11-12T02:03:06.489Z,32.33
2023-11-12T02:05:34.610Z,34.05
2023-11-12T02:08:05.143Z,32.78
2023-11-12T02:10:36.652Z,33.08
2023-11-12T02:13:05.502Z,33.92
2023-11-12T02:15:33.778Z,34.22
2023-11-12T02:18:02.015Z,34.47
2023-11-12T02:20:30.048Z,34.05
2023-11-12T02:22:58.270Z,37.25
2023-11-12T02:25:27.493Z,37.38
2023-11-12T02:27:55.324Z,34.92
2023-11-12T02:30:23.162Z,37.22
2023-11-12T02:32:51.168Z,34.92
2023-11-12T02:35:19.137Z,33.58
2023-11-12T02:37:47.117Z,37.33
2023-11-12T02:40:16.107Z,36.05
2023-11-12T02:42:45.666Z,37.40
2023-11-12T02:45:14.392Z,32.72
2023-11-12T02:47:44.314Z,32.47
2023-11-12T02:50:36.666Z,33.13
2023-11-12T02:53:08.238Z,30.88
2023-11-12T02:55:37.254Z,32.20
2023-11-12T02:58:06.960Z,31.83
2023-11-12T03:00:35.125Z,33.20
2023-11-12T03:03:04.139Z,31.80
2023-11-12T03:05:33.424Z,31.08
2023-11-12T03:08:01.494Z,31.83
2023-11-12T03:10:29.500Z,27.10
2023-11-12T03:12:57.373Z,29.70
2023-11-12T03:15:26.758Z,27.83
2023-11-12T03:17:54.741Z,28.73
2023-11-12T03:20:24.433Z,31.48
2023-11-12T03:22:52.321Z,32.53
2023-11-12T03:25:20.113Z,30.08
2023-11-12T03:27:47.987Z,30.50
2023-11-12T03:30:16.078Z,33.08
2023-11-12T03:32:44.415Z,32.00
2023-11-12T03:35:12.852Z,35.10
2023-11-12T03:37:40.694Z,32.95
2023-11-12T03:40:10.407Z,33.97
2023-11-12T03:42:38.325Z,30.23
2023-11-12T03:45:07.267Z,28.00
2023-11-12T03:47:35.155Z,29.15
2023-11-12T03:50:05.089Z,31.05
2023-11-12T03:52:32.864Z,33.75
2023-11-12T03:55:00.693Z,34.08
2023-11-12T03:57:28.620Z,29.38
2023-11-12T03:59:56.714Z,30.38
2023-11-12T04:02:24.584Z,31.98
2023-11-12T04:04:53.493Z,31.65
2023-11-12T04:07:24.782Z,31.02
2023-11-12T04:09:52.644Z,31.17
2023-11-12T04:12:20.644Z,31.65
2023-11-12T04:14:48.502Z,32.75
2023-11-12T04:17:16.342Z,32.85
2023-11-12T04:19:44.767Z,30.83
2023-11-12T04:22:12.786Z,30.25
2023-11-12T04:24:42.031Z,30.63
2023-11-12T04:27:10.223Z,32.33
2023-11-12T04:29:38.236Z,33.13
2023-11-12T04:32:06.306Z,29.88
2023-11-12T04:34:34.088Z,32.83
2023-11-12T04:37:01.913Z,34.10
2023-11-12T04:39:29.721Z,33.83
2023-11-12T04:41:58.899Z,29.33
2023-11-12T04:44:26.740Z,31.13
2023-11-12T04:46:55.041Z,35.85
2023-11-12T04:49:25.399Z,37.25
2023-11-12T04:51:54.777Z,35.58
2023-11-12T04:56:50.791Z,36.35
2023-11-12T04:59:20.010Z,37.88
2023-11-12T05:01:47.862Z,43.25
2023-11-12T05:04:15.734Z,45.65
2023-11-12T05:06:44.080Z,38.33
2023-11-12T05:09:12.296Z,38.47
2023-11-12T05:11:40.253Z,36.75
2023-11-12T05:14:08.838Z,40.38
2023-11-12T05:16:38.022Z,37.20
2023-11-12T05:19:07.768Z,38.50
2023-11-12T05:21:35.680Z,42.33
2023-11-12T05:24:03.733Z,37.53
2023-11-12T05:26:33.097Z,42.88
2023-11-12T05:31:28.754Z,39.03
2023-11-12T05:33:57.938Z,38.97
2023-11-12T05:36:25.835Z,38.13
2023-11-12T05:38:53.939Z,36.97
2023-11-12T05:41:21.898Z,34.40
2023-11-12T05:43:51.575Z,39.10
2023-11-12T05:46:19.645Z,40.50
2023-11-12T05:48:47.572Z,36.53
2023-11-12T05:51:16.909Z,39.20
2023-11-12T05:56:12.716Z,33.03
2023-11-12T05:58:40.722Z,32.40
2023-11-12T06:01:08.502Z,34.63
2023-11-12T06:03:36.446Z,36.53
2023-11-12T06:06:04.529Z,32.72
2023-11-12T06:08:33.897Z,32.67
2023-11-12T06:13:29.513Z,33.15
2023-11-12T06:15:57.552Z,32.97
2023-11-12T06:18:25.430Z,33.85
2023-11-12T06:20:53.380Z,32.63
2023-11-12T06:23:21.238Z,35.38
2023-11-12T06:25:50.443Z,34.13
2023-11-12T06:28:18.598Z,32.10
2023-11-12T06:30:46.426Z,34.08
2023-11-12T06:33:14.571Z,40.97
2023-11-12T06:35:42.549Z,37.00
2023-11-12T06:38:10.350Z,35.30
2023-11-12T06:40:38.176Z,33.53
2023-11-12T06:43:07.293Z,34.10
2023-11-12T06:45:35.346Z,34.38
2023-11-12T06:48:03.260Z,36.45
2023-11-12T06:50:31.115Z,39.92
2023-11-12T06:52:58.932Z,42.42
2023-11-12T06:55:30.184Z,36.20
2023-11-12T06:57:58.007Z,40.80
2023-11-12T07:00:27.141Z,36.80
2023-11-12T07:02:55.646Z,39.42
2023-11-12T07:05:23.601Z,40.72
2023-11-12T07:07:51.414Z,43.33
2023-11-12T07:10:20.233Z,47.03
2023-11-12T07:12:48.081Z,43.78
2023-11-12T07:15:16.271Z,41.50
2023-11-12T07:17:49.127Z,44.55
2023-11-12T07:20:17.002Z,50.53
2023-11-12T07:22:46.330Z,46.03
2023-11-12T07:25:14.120Z,48.65
2023-11-12T07:27:44.330Z,45.15
2023-11-12T07:30:13.353Z,45.30
2023-11-12T07:32:41.237Z,46.63
2023-11-12T07:35:14.167Z,45.08
2023-11-12T07:37:43.080Z,47.95
2023-11-12T07:40:12.775Z,47.72
2023-11-12T07:42:41.270Z,42.78
2023-11-12T07:45:13.885Z,43.77
2023-11-12T07:47:43.614Z,44.05
2023-11-12T07:50:13.129Z,42.53
2023-11-12T07:52:42.703Z,43.85
2023-11-12T07:55:11.128Z,42.50
2023-11-12T07:57:39.007Z,42.28
2023-11-12T08:00:09.039Z,40.75
2023-11-12T08:02:38.025Z,40.28
2023-11-12T08:05:08.928Z,43.95
2023-11-12T08:07:39.002Z,42.05
2023-11-12T08:10:09.900Z,40.55
2023-11-12T08:12:39.301Z,46.10
2023-11-12T08:15:12.009Z,44.63
2023-11-12T08:17:39.916Z,43.90
2023-11-12T08:20:09.594Z,49.00
2023-11-12T08:22:38.900Z,43.80
2023-11-12T08:25:07.444Z,45.17
2023-11-12T08:27:35.832Z,45.97
2023-11-12T08:30:05.025Z,47.55
2023-11-12T08:32:33.017Z,42.95
2023-11-12T08:35:01.176Z,46.38
2023-11-12T08:37:29.105Z,41.95
2023-11-12T08:39:58.369Z,45.63
2023-11-12T08:42:27.809Z,38.70
2023-11-12T08:47:24.133Z,53.45
2023-11-12T08:49:52.218Z,54.80
2023-11-12T08:52:20.122Z,50.65
2023-11-12T08:54:48.175Z,43.67
2023-11-12T08:57:17.430Z,38.78
2023-11-12T08:59:45.393Z,33.53
2023-11-12T09:02:13.777Z,31.00
2023-11-12T09:04:41.609Z,34.75
2023-11-12T09:07:09.988Z,36.40
2023-11-12T09:09:38.323Z,35.17
2023-11-12T09:12:06.936Z,35.83
2023-11-12T09:14:36.690Z,36.47
2023-11-12T09:17:05.180Z,36.75
2023-11-12T09:19:33.034Z,34.73
2023-11-12T09:22:00.865Z,37.58
2023-11-12T09:24:29.066Z,39.72
2023-11-12T09:26:56.944Z,34.80
2023-11-12T09:29:25.507Z,35.20
2023-11-12T09:31:54.672Z,30.13
2023-11-12T09:34:22.494Z,32.53
2023-11-12T09:36:50.428Z,30.55
2023-11-12T09:39:18.909Z,33.25
2023-11-12T09:41:52.691Z,32.40
2023-11-12T09:44:21.123Z,32.67
2023-11-12T09:47:02.330Z,31.80
2023-11-12T09:49:31.251Z,31.13
2023-11-12T09:51:59.426Z,28.88
2023-11-12T09:54:27.980Z,29.67
2023-11-12T09:57:06.361Z,32.07
2023-11-12T09:59:37.613Z,28.33
2023-11-12T10:02:07.928Z,29.63
2023-11-12T10:04:36.356Z,31.90
2023-11-12T10:07:06.111Z,31.95
2023-11-12T10:09:37.977Z,25.92
2023-11-12T10:12:07.121Z,25.35
2023-11-12T10:14:35.905Z,24.45
2023-11-12T10:17:12.097Z,24.98
2023-11-12T10:19:40.220Z,28.58
2023-11-12T10:22:08.779Z,24.85
2023-11-12T10:24:44.578Z,25.07
2023-11-12T10:27:15.300Z,25.17
2023-11-12T10:29:45.568Z,24.63
2023-11-12T10:32:27.588Z,21.83
2023-11-12T10:34:56.665Z,22.25
2023-11-12T10:37:24.814Z,20.35
2023-11-12T10:39:52.698Z,18.17
2023-11-12T10:42:24.034Z,21.00
2023-11-12T10:44:55.736Z,20.30
2023-11-12T10:47:27.770Z,25.60
2023-11-12T10:49:56.852Z,25.65
2023-11-12T10:52:25.201Z,28.45
2023-11-12T10:54:53.426Z,20.33
2023-11-12T10:57:22.744Z,24.85
2023-11-12T11:02:20.197Z,20.45
2023-11-12T11:07:17.969Z,21.70
2023-11-12T11:09:46.450Z,19.57
2023-11-12T11:12:15.573Z,20.87
2023-11-12T11:14:43.457Z,16.85
2023-11-12T11:17:38.505Z,18.58
2023-11-12T11:20:12.773Z,21.13
2023-11-12T11:22:40.868Z,33.63
2023-11-12T11:25:26.003Z,18.27
2023-11-12T11:28:19.018Z,19.85
2023-11-12T11:31:10.681Z,13.95
2023-11-12T11:33:48.311Z,16.10
2023-11-12T11:36:18.670Z,15.80
2023-11-12T11:39:14.093Z,15.45
2023-11-12T11:42:22.044Z,14.18
2023-11-12T11:44:50.649Z,16.00
2023-11-12T11:47:21.143Z,16.70
2023-11-12T11:49:49.886Z,13.68
2023-11-12T11:52:23.241Z,15.55
2023-11-12T11:54:58.535Z,12.80
2023-11-12T11:57:29.132Z,12.80
2023-11-12T11:59:58.003Z,11.98
2023-11-12T12:02:26.668Z,13.23
2023-11-12T12:04:56.282Z,11.57
2023-11-12T12:07:25.262Z,10.73
2023-11-12T12:09:57.624Z,10.40
2023-11-12T12:12:29.040Z,10.13
2023-11-12T12:14:56.953Z,14.20
2023-11-12T12:17:25.351Z,9.38
2023-11-12T12:19:53.617Z,8.67
2023-11-12T12:22:25.910Z,12.40
2023-11-12T12:24:57.051Z,10.13
2023-11-12T12:27:25.416Z,9.43
2023-11-12T12:29:55.897Z,9.33
2023-11-12T12:32:25.118Z,9.25
2023-11-12T12:34:57.485Z,10.55
2023-11-12T12:37:26.846Z,9.55
2023-11-12T12:40:02.017Z,14.98
2023-11-12T12:42:30.392Z,13.63
2023-11-12T12:44:59.863Z,9.00
2023-11-12T12:47:34.536Z,24.05
2023-11-12T12:50:17.374Z,11.32
2023-11-12T12:52:47.312Z,7.28
2023-11-12T12:55:18.005Z,8.25
2023-11-12T12:57:50.664Z,9.30
2023-11-12T13:00:23.141Z,9.15
2023-11-12T13:02:52.952Z,7.57
2023-11-12T13:05:22.863Z,8.75
2023-11-12T13:07:52.880Z,10.15
2023-11-12T13:10:23.343Z,7.70
2023-11-12T13:12:52.681Z,7.50
2023-11-12T13:15:22.736Z,7.32
2023-11-12T13:17:51.355Z,7.15
2023-11-12T13:20:22.520Z,8.05
2023-11-12T13:22:51.735Z,9.20
2023-11-12T13:25:19.810Z,6.40
2023-11-12T13:27:50.450Z,9.48
2023-11-12T13:30:18.538Z,7.50
2023-11-12T13:32:50.514Z,9.30
2023-11-12T13:35:18.973Z,11.75
2023-11-12T13:37:47.265Z,10.15
2023-11-12T13:40:16.295Z,10.00
2023-11-12T13:42:45.104Z,8.35
2023-11-12T13:45:14.876Z,8.15
2023-11-12T13:47:43.051Z,8.23
2023-11-12T13:50:15.173Z,9.50
2023-11-12T13:52:44.937Z,12.82
2023-11-12T13:55:19.576Z,20.20
2023-11-12T13:57:48.552Z,12.13
2023-11-12T14:00:18.614Z,10.85
2023-11-12T14:02:46.582Z,9.95
2023-11-12T14:05:17.842Z,11.32
2023-11-12T14:07:45.744Z,12.23
2023-11-12T14:10:15.680Z,10.20
2023-11-12T14:12:45.592Z,12.60
2023-11-12T14:15:19.034Z,12.32
2023-11-12T14:17:47.492Z,10.10
2023-11-12T14:20:23.556Z,10.33
2023-11-12T14:22:51.795Z,13.63
2023-11-12T14:25:21.194Z,14.30
2023-11-12T14:30:20.034Z,12.82
2023-11-12T14:32:49.137Z,16.20
2023-11-12T14:35:18.888Z,14.95
2023-11-12T14:37:48.478Z,18.38
2023-11-12T14:40:17.575Z,14.40
2023-11-12T14:42:46.515Z,14.13
2023-11-12T14:45:24.973Z,17.17
2023-11-12T14:47:56.936Z,13.02
2023-11-12T14:50:26.248Z,13.15
2023-11-12T14:52:55.180Z,13.10
2023-11-12T14:55:25.902Z,16.08
2023-11-12T14:57:56.241Z,13.93
2023-11-12T15:00:29.814Z,11.15
2023-11-12T15:02:58.528Z,13.20
2023-11-12T15:05:28.106Z,12.83
2023-11-12T15:07:56.239Z,15.75
2023-11-12T15:10:24.269Z,16.83
2023-11-12T15:12:52.902Z,16.30
2023-11-12T15:15:22.375Z,17.20
2023-11-12T15:17:52.658Z,18.40
2023-11-12T15:20:20.595Z,20.95
2023-11-12T15:22:51.174Z,19.30
2023-11-12T15:25:19.851Z,19.45
2023-11-12T15:27:49.575Z,19.37
2023-11-12T15:30:18.388Z,19.55
2023-11-12T15:32:47.045Z,21.13
2023-11-12T15:35:16.485Z,17.13
2023-11-12T15:37:46.363Z,17.55
2023-11-12T15:40:20.865Z,17.42
2023-11-12T15:42:51.202Z,19.98
2023-11-12T15:45:20.403Z,17.75
2023-11-12T15:47:49.306Z,17.30
2023-11-12T15:50:18.705Z,15.55
2023-11-12T15:52:47.173Z,15.10
2023-11-12T15:55:18.415Z,16.80
2023-11-12T15:57:46.498Z,23.33
2023-11-12T16:00:15.944Z,19.85
2023-11-12T16:02:45.433Z,18.60
2023-11-12T16:07:42.632Z,28.23
2023-11-12T16:10:13.380Z,29.30
2023-11-12T16:12:43.061Z,26.98
2023-11-12T16:15:14.405Z,32.13
2023-11-12T16:17:43.233Z,31.25
2023-11-12T16:20:13.595Z,31.33
2023-11-12T16:22:42.181Z,28.95
2023-11-12T16:25:11.097Z,27.83
2023-11-12T16:27:39.189Z,25.90
2023-11-12T16:30:09.846Z,21.70
2023-11-12T16:32:38.128Z,16.65
2023-11-12T16:35:06.790Z,15.75
2023-11-12T16:37:34.639Z,21.10
2023-11-12T16:40:04.341Z,19.70
2023-11-12T16:42:32.308Z,22.38
2023-11-12T16:45:00.235Z,20.50
2023-11-12T16:47:29.804Z,19.83
2023-11-12T16:49:58.256Z,22.80
2023-11-12T16:52:26.087Z,25.60
2023-11-12T16:54:54.805Z,20.55
2023-11-12T16:57:22.808Z,20.20
2023-11-12T16:59:51.504Z,20.80
2023-11-12T17:02:21.150Z,20.83
2023-11-12T17:04:50.662Z,25.52
2023-11-12T17:07:18.664Z,31.23
2023-11-12T17:09:46.966Z,34.88
2023-11-12T17:12:15.303Z,38.08
2023-11-12T17:14:43.847Z,37.30
2023-11-12T17:17:12.448Z,36.50
2023-11-12T17:19:40.822Z,38.15
2023-11-12T17:22:10.589Z,44.78
2023-11-12T17:24:38.486Z,48.30
2023-11-12T17:27:07.751Z,46.00
2023-11-12T17:29:36.209Z,44.90
2023-11-12T17:32:04.720Z,48.37
2023-11-12T17:34:32.658Z,49.77
2023-11-12T17:37:00.862Z,47.45
2023-11-12T17:39:30.041Z,51.10
2023-11-12T17:41:59.006Z,48.03
2023-11-12T17:44:27.037Z,50.55
2023-11-12T17:46:58.359Z,52.63
2023-11-12T17:49:26.364Z,59.67
2023-11-12T17:51:54.226Z,54.38
2023-11-12T17:54:22.426Z,55.17
2023-11-12T17:56:51.978Z,59.42
2023-11-12T17:59:19.811Z,55.85
2023-11-12T18:01:49.558Z,64.13
2023-11-12T18:04:18.783Z,69.13
2023-11-12T18:06:48.720Z,66.30
2023-11-12T18:09:19.008Z,69.20
2023-11-12T18:11:46.894Z,67.35
2023-11-12T18:14:16.553Z,70.68
2023-11-12T18:16:45.767Z,69.07
2023-11-12T18:19:14.613Z,70.28
2023-11-12T18:21:43.425Z,64.07
2023-11-12T18:24:12.411Z,58.58
2023-11-12T18:26:40.749Z,57.65
2023-11-12T18:29:08.960Z,58.15
2023-11-12T18:31:39.145Z,51.75
2023-11-12T18:34:09.560Z,55.42
2023-11-12T18:36:37.580Z,43.45
2023-11-12T18:39:06.883Z,42.97
2023-11-12T18:41:38.077Z,42.22
2023-11-12T18:44:07.188Z,46.17
2023-11-12T18:46:35.886Z,56.17
2023-11-12T18:49:05.349Z,61.90
2023-11-12T18:51:33.244Z,54.22
2023-11-12T18:54:01.158Z,59.65
2023-11-12T18:56:29.151Z,64.55
2023-11-12T18:58:57.808Z,53.70
2023-11-12T19:01:25.840Z,56.97
2023-11-12T19:03:53.933Z,58.00
2023-11-12T19:06:23.291Z,52.65
2023-11-12T19:08:51.139Z,50.40
2023-11-12T19:11:20.397Z,53.63
2023-11-12T19:13:48.253Z,47.05
2023-11-12T19:16:16.998Z,47.03
2023-11-12T19:18:45.138Z,44.97
2023-11-12T19:21:13.032Z,44.70
2023-11-12T19:23:42.463Z,37.38
2023-11-12T19:28:38.264Z,36.10
2023-11-12T19:31:06.386Z,37.75
2023-11-12T19:33:34.249Z,36.13
2023-11-12T19:36:02.126Z,37.75
2023-11-12T19:38:30.332Z,38.00
2023-11-12T19:41:00.084Z,33.92
2023-11-12T19:43:28.175Z,31.20
2023-11-12T19:45:56.029Z,33.33
2023-11-12T19:48:23.861Z,31.02
2023-11-12T19:50:51.808Z,31.55
2023-11-12T19:53:21.648Z,31.25
2023-11-12T19:55:50.473Z,34.85
2023-11-12T19:58:19.799Z,36.95
2023-11-12T20:03:15.596Z,31.63
2023-11-12T20:05:43.440Z,34.92
2023-11-12T20:08:11.474Z,34.65
2023-11-12T20:10:40.476Z,33.85
2023-11-12T20:13:08.340Z,35.45
2023-11-12T20:15:37.822Z,39.22
2023-11-12T20:18:10.121Z,43.90
2023-11-12T20:20:40.160Z,54.13
2023-11-12T20:23:08.953Z,46.85
2023-11-12T20:25:37.397Z,49.38
2023-11-12T20:28:12.194Z,42.45
2023-11-12T20:30:44.873Z,49.22
2023-11-12T20:33:14.395Z,44.85
2023-11-12T20:35:48.080Z,42.70
2023-11-12T20:38:16.539Z,40.72
2023-11-12T20:40:44.661Z,39.03
2023-11-12T20:43:12.602Z,33.67
2023-11-12T20:45:42.808Z,31.05
2023-11-12T20:48:14.073Z,29.83
2023-11-12T20:50:42.179Z,24.65
2023-11-12T20:53:10.665Z,24.52
2023-11-12T20:55:40.290Z,26.03
2023-11-12T20:58:08.382Z,30.95
2023-11-12T21:00:36.416Z,21.45
2023-11-12T21:03:06.024Z,23.05
2023-11-12T21:05:34.191Z,26.65
2023-11-12T21:08:02.320Z,22.48
2023-11-12T21:10:33.761Z,21.10
2023-11-12T21:13:01.731Z,23.08
2023-11-12T21:15:30.242Z,23.45
2023-11-12T21:17:58.619Z,23.57
2023-11-12T21:20:27.974Z,23.55
2023-11-12T21:25:23.497Z,20.77
2023-11-12T21:27:51.473Z,24.42
2023-11-12T21:30:26.863Z,22.58
2023-11-12T21:32:58.477Z,20.60
2023-11-12T21:35:28.177Z,25.00
2023-11-12T21:37:58.490Z,20.65
2023-11-12T21:40:26.486Z,24.25
2023-11-12T21:42:54.335Z,22.20
2023-11-12T21:45:28.269Z,23.88
2023-11-12T21:47:56.381Z,21.63
2023-11-12T21:50:25.272Z,19.42
2023-11-12T21:52:57.826Z,23.45
2023-11-12T21:55:27.017Z,22.52
2023-11-12T21:57:55.605Z,22.85
2023-11-12T22:00:27.314Z,22.77
2023-11-12T22:02:55.425Z,26.20
2023-11-12T22:05:25.583Z,21.98
2023-11-12T22:07:54.975Z,26.63
2023-11-12T22:12:52.155Z,22.05
2023-11-12T22:15:20.308Z,24.33
2023-11-12T22:17:49.746Z,23.48
2023-11-12T22:20:18.534Z,23.35
2023-11-12T22:22:47.745Z,25.00
2023-11-12T22:25:17.481Z,29.45
2023-11-12T22:27:47.627Z,29.35
2023-11-12T22:30:16.889Z,28.20
2023-11-12T22:32:45.599Z,26.15
2023-11-12T22:35:13.611Z,24.10
2023-11-12T22:37:41.952Z,24.83
2023-11-12T22:40:10.584Z,27.92
2023-11-12T22:42:40.063Z,25.55
2023-11-12T22:47:39.158Z,24.95
2023-11-12T22:50:08.961Z,23.67
2023-11-12T22:52:37.429Z,21.50
2023-11-12T22:55:07.246Z,21.70
2023-11-12T22:57:36.237Z,24.30
2023-11-12T23:00:16.193Z,20.55
2023-11-12T23:02:45.019Z,24.02
2023-11-12T23:05:14.052Z,21.13
2023-11-12T23:07:43.191Z,24.17
2023-11-12T23:10:12.419Z,20.17
2023-11-12T23:12:40.397Z,23.63
2023-11-12T23:15:10.411Z,20.55
2023-11-12T23:17:38.517Z,21.77
2023-11-12T23:20:10.338Z,18.52
2023-11-12T23:22:38.596Z,19.77
2023-11-12T23:25:07.444Z,22.27
2023-11-12T23:27:35.311Z,19.92
2023-11-12T23:30:04.403Z,22.42
2023-11-12T23:32:33.637Z,17.50
2023-11-12T23:35:01.462Z,20.55
2023-11-12T23:37:29.606Z,19.02
2023-11-12T23:39:57.743Z,20.23
2023-11-12T23:42:25.599Z,17.15
2023-11-12T23:44:53.938Z,18.42
2023-11-12T23:47:21.989Z,21.40
2023-11-12T23:49:51.283Z,18.63
2023-11-12T23:52:20.013Z,20.33
2023-11-12T23:54:48.805Z,23.52
2023-11-12T23:57:16.735Z,22.92
2023-11-12T23:59:45.698Z,19.30
